Time;durP1;ratioP1;P1;durP2;ratioP2;P2;SDS_P1;SDS_P2;PMS_P1;PMS_P2;Temp;Humidity;BMP_temperature;BMP_pressure;BME280_temperature;BME280_humidity;BME280_pressure;Samples;Min_cycle;Max_cycle;Signal;HPM_P1;HPM_P2
2022/02/27 00:00:11;;;;;;;8.80;4.53;;;;;;;3.38;89.86;101278.84;6282806;28;20040;-68
2022/02/27 00:03:15;;;;;;;8.15;3.90;;;;;;;3.25;92.60;101279.84;6283676;28;20437;-69
2022/02/27 00:06:16;;;;;;;8.40;3.75;;;;;;;3.08;94.63;101289.50;6299334;28;20114;-68
2022/02/27 00:09:17;;;;;;;11.02;4.82;;;;;;;3.20;95.27;101285.06;6299179;28;20123;-69
2022/02/27 00:12:17;;;;;;;7.10;3.45;;;;;;;3.13;95.23;101275.72;6272456;28;20419;-68
2022/02/27 00:15:19;;;;;;;10.20;4.93;;;;;;;3.15;95.92;101278.25;6289937;28;20120;-69
2022/02/27 00:18:20;;;;;;;12.15;5.35;;;;;;;3.23;95.87;101279.00;6316065;28;20139;-70
2022/02/27 00:21:20;;;;;;;5.53;3.47;;;;;;;3.21;96.40;101276.47;6300056;28;20048;-69
2022/02/27 00:24:21;;;;;;;13.18;5.18;;;;;;;3.16;98.28;101267.91;6299086;28;20101;-68
2022/02/27 00:27:22;;;;;;;4.80;3.13;;;;;;;3.12;97.95;101260.25;6300087;28;20049;-68
2022/02/27 00:30:23;;;;;;;9.93;5.05;;;;;;;3.19;98.89;101278.22;6291143;28;20068;-69
2022/02/27 00:33:24;;;;;;;7.43;3.47;;;;;;;3.06;98.55;101270.63;6272989;28;20049;-69
2022/02/27 00:36:25;;;;;;;7.80;4.97;;;;;;;3.08;99.32;101262.00;6275107;28;20067;-68
2022/02/27 00:39:28;;;;;;;3.90;2.30;;;;;;;2.94;100.00;101267.28;6273652;28;20052;-69
2022/02/27 00:42:29;;;;;;;10.85;5.35;;;;;;;3.03;100.00;101256.03;6274728;28;20060;-68
2022/02/27 00:45:30;;;;;;;10.75;4.70;;;;;;;3.06;100.00;101261.16;6256758;28;20488;-68
2022/02/27 00:48:30;;;;;;;10.20;4.68;;;;;;;2.95;100.00;101258.69;6274725;28;20490;-68
2022/02/27 00:51:32;;;;;;;9.50;5.47;;;;;;;3.00;100.00;101253.47;6273205;28;20049;-72
2022/02/27 00:54:32;;;;;;;7.85;4.88;;;;;;;3.01;99.40;101255.22;6273224;28;20488;-72
2022/02/27 00:57:34;;;;;;;7.45;4.10;;;;;;;2.97;99.17;101256.09;6274433;28;20068;-73
2022/02/27 01:00:35;;;;;;;15.35;5.50;;;;;;;3.16;98.04;101256.75;6274251;28;20468;-72
2022/02/27 01:03:36;;;;;;;11.65;5.22;;;;;;;3.16;97.94;101246.44;6273307;28;20060;-72
2022/02/27 01:06:37;;;;;;;10.32;4.85;;;;;;;3.23;96.84;101242.91;6274316;28;20049;-72
2022/02/27 01:09:37;;;;;;;10.00;5.35;;;;;;;3.20;95.64;101248.13;6272908;28;20099;-72
2022/02/27 01:12:39;;;;;;;9.20;4.90;;;;;;;3.20;94.68;101242.97;6285291;28;20036;-72
2022/02/27 01:15:40;;;;;;;12.93;4.85;;;;;;;3.18;95.14;101242.13;6298865;28;20090;-73
2022/02/27 01:18:41;;;;;;;10.45;4.82;;;;;;;3.18;95.57;101257.59;6298960;28;20040;-72
2022/02/27 01:21:42;;;;;;;9.68;5.05;;;;;;;3.19;94.92;101248.97;6297516;28;20110;-72
2022/02/27 01:24:43;;;;;;;9.48;4.88;;;;;;;3.21;95.20;101261.00;6298593;28;20041;-72
2022/02/27 01:27:44;;;;;;;7.57;4.65;;;;;;;3.20;95.91;101253.28;6298442;28;20116;-72
2022/02/27 01:30:44;;;;;;;7.05;3.88;;;;;;;3.10;96.59;101247.34;6298422;28;20041;-73
2022/02/27 01:33:45;;;;;;;8.10;4.65;;;;;;;3.20;97.32;101255.84;6296979;28;20494;-72
2022/02/27 01:36:46;;;;;;;6.40;4.22;;;;;;;3.08;98.13;101245.66;6297189;28;20044;-72
2022/02/27 01:39:47;;;;;;;7.00;3.78;;;;;;;3.24;96.59;101244.63;6296909;28;20043;-72
2022/02/27 01:42:47;;;;;;;5.93;3.42;;;;;;;3.22;96.55;101241.22;6296535;28;20048;-73
2022/02/27 01:45:48;;;;;;;8.25;4.43;;;;;;;3.09;97.92;101234.47;6296349;28;20059;-73
2022/02/27 01:48:49;;;;;;;11.20;4.22;;;;;;;3.12;97.38;101243.03;6298001;28;20061;-72
2022/02/27 01:51:50;;;;;;;7.03;4.07;;;;;;;3.19;97.50;101238.66;6288223;28;20045;-72
2022/02/27 01:54:51;;;;;;;10.68;4.45;;;;;;;3.28;96.07;101246.31;6272475;28;20044;-73
2022/02/27 01:57:52;;;;;;;6.60;4.10;;;;;;;3.26;95.92;101247.19;6272396;28;20091;-73
2022/02/27 02:00:56;;;;;;;10.15;4.85;;;;;;;3.31;95.77;101247.97;6271445;28;20452;-73
2022/02/27 02:03:57;;;;;;;8.18;3.97;;;;;;;3.35;94.87;101245.34;6272969;28;20384;-73
2022/02/27 02:06:58;;;;;;;7.97;4.13;;;;;;;3.40;94.47;101253.03;6254226;28;20057;-73
2022/02/27 02:09:59;;;;;;;9.70;4.33;;;;;;;3.38;95.58;101234.16;6272899;28;20150;-73
2022/02/27 02:13:00;;;;;;;7.75;3.53;;;;;;;3.31;95.11;101235.94;6272724;28;20346;-73
2022/02/27 02:16:01;;;;;;;11.93;4.43;;;;;;;3.27;96.04;101234.25;6272643;28;20067;-73
2022/02/27 02:19:01;;;;;;;6.97;4.07;;;;;;;3.32;95.36;101229.06;6272851;28;20041;-73
2022/02/27 02:22:03;;;;;;;6.57;3.92;;;;;;;3.27;95.84;101236.00;6271350;28;20053;-73
2022/02/27 02:25:06;;;;;;;10.50;3.90;;;;;;;3.27;95.75;101236.84;6272621;28;20047;-73
2022/02/27 02:28:07;;;;;;;8.02;4.43;;;;;;;3.30;95.49;101234.25;6254913;28;20053;-73
2022/02/27 02:31:08;;;;;;;7.80;4.45;;;;;;;3.32;95.02;101232.50;6272432;28;20068;-72
2022/02/27 02:34:11;;;;;;;8.00;4.13;;;;;;;3.34;95.05;101227.31;6271009;28;20041;-73
2022/02/27 02:37:12;;;;;;;8.45;4.50;;;;;;;3.22;94.66;101229.16;6272241;28;20044;-73
2022/02/27 02:40:13;;;;;;;6.97;3.33;;;;;;;3.21;94.75;101227.47;6272190;28;20041;-73
2022/02/27 02:43:16;;;;;;;8.88;4.32;;;;;;;3.31;93.68;101228.19;6271093;28;20079;-73
2022/02/27 02:46:17;;;;;;;;;;;;;;;3.27;92.60;101229.09;6271370;28;20060;-73
2022/02/27 02:49:17;;;;;;;7.93;4.53;;;;;;;3.43;91.77;101227.19;6272178;28;20015;-73
2022/02/27 02:52:20;;;;;;;8.45;4.30;;;;;;;3.43;91.36;101230.63;6254329;28;20480;-72
2022/02/27 02:55:20;;;;;;;8.95;4.25;;;;;;;3.39;90.47;101225.53;6274556;28;20456;-73
2022/02/27 02:58:21;;;;;;;7.97;3.85;;;;;;;3.36;90.93;101230.75;6262604;28;20056;-73
2022/02/27 03:01:22;;;;;;;9.45;4.05;;;;;;;3.39;89.76;101223.78;6280387;28;20083;-73
2022/02/27 03:04:23;;;;;;;8.48;4.50;;;;;;;3.36;89.48;101228.16;6279013;28;20045;-73
2022/02/27 03:07:24;;;;;;;12.32;4.00;;;;;;;3.30;87.97;101218.75;6280170;28;20049;-72
2022/02/27 03:10:25;;;;;;;13.50;5.05;;;;;;;3.45;86.75;101222.03;6280276;28;20490;-73
2022/02/27 03:13:26;;;;;;;10.80;5.47;;;;;;;3.47;87.37;101215.13;6245969;28;20041;-72
2022/02/27 03:16:28;;;;;;;10.88;4.93;;;;;;;3.47;84.50;101212.53;6262580;28;20045;-73
2022/02/27 03:19:29;;;;;;;8.43;4.50;;;;;;;3.58;83.55;101219.25;6280189;28;20045;-72
2022/02/27 03:22:30;;;;;;;11.10;5.22;;;;;;;3.63;83.56;101214.88;6261933;28;20534;-73
2022/02/27 03:25:31;;;;;;;8.77;4.68;;;;;;;3.61;82.99;101224.38;6279979;28;20041;-73
2022/02/27 03:28:32;;;;;;;13.57;4.95;;;;;;;3.55;82.27;101219.28;6278430;28;20057;-72
2022/02/27 03:31:34;;;;;;;14.98;6.30;;;;;;;3.53;81.41;101215.88;6278667;28;20040;-68
2022/02/27 03:34:34;;;;;;;8.23;4.68;;;;;;;3.46;81.44;101210.81;6279837;28;20128;-68
2022/02/27 03:37:35;;;;;;;7.28;3.72;;;;;;;3.48;80.61;101211.63;6262360;28;20041;-68
2022/02/27 03:40:40;;;;;;;8.90;4.80;;;;;;;3.41;80.93;101203.13;6279689;28;20051;-68
2022/02/27 03:43:41;;;;;;;9.52;4.57;;;;;;;3.49;79.60;101205.63;6279708;28;20045;-68
2022/02/27 03:46:42;;;;;;;8.05;4.20;;;;;;;3.35;77.15;101209.22;6279183;28;20131;-68
2022/02/27 03:49:42;;;;;;;8.85;4.68;;;;;;;3.45;75.92;101206.53;6244472;28;20060;-68
2022/02/27 03:52:44;;;;;;;7.75;3.83;;;;;;;3.39;72.68;101192.81;6278102;28;20040;-69
2022/02/27 03:55:45;;;;;;;13.38;4.95;;;;;;;3.38;70.80;101187.72;6279554;28;20049;-69
2022/02/27 03:58:46;;;;;;;8.93;4.85;;;;;;;3.34;67.62;101191.19;6279566;28;20041;-73
2022/02/27 04:01:47;;;;;;;11.48;4.60;;;;;;;3.38;66.66;101195.44;6279673;28;20049;-73
2022/02/27 04:04:48;;;;;;;13.75;4.50;;;;;;;3.34;64.34;101196.38;6245359;28;20049;-73
2022/02/27 04:07:49;;;;;;;9.57;5.03;;;;;;;3.40;64.08;101197.13;6275393;28;20131;-73
2022/02/27 04:10:49;;;;;;;9.77;4.90;;;;;;;3.27;63.54;101190.41;6275398;28;20072;-73
2022/02/27 04:13:50;;;;;;;15.98;4.80;;;;;;;3.27;62.72;101194.72;6275472;28;20124;-73
2022/02/27 04:16:51;;;;;;;10.45;5.28;;;;;;;3.29;62.16;101198.13;6275378;28;20080;-68
2022/02/27 04:19:52;;;;;;;12.75;4.82;;;;;;;3.17;61.75;101194.84;6274300;28;20041;-69
2022/02/27 04:22:53;;;;;;;9.13;4.53;;;;;;;3.17;61.30;101191.38;6275285;28;20135;-73
2022/02/27 04:25:54;;;;;;;9.02;4.38;;;;;;;3.14;60.85;101191.44;6275136;28;20045;-73
2022/02/27 04:28:54;;;;;;;14.27;5.45;;;;;;;3.19;61.37;101197.38;6275118;28;20040;-73
2022/02/27 04:31:55;;;;;;;16.98;5.38;;;;;;;3.11;61.56;101202.66;6275007;28;20460;-73
2022/02/27 04:34:56;;;;;;;12.82;5.10;;;;;;;3.11;61.10;101209.50;6273700;28;20473;-73
2022/02/27 04:37:57;;;;;;;11.07;4.57;;;;;;;3.02;60.59;101213.06;6274943;28;20419;-73
2022/02/27 04:40:58;;;;;;;8.23;4.13;;;;;;;3.01;59.99;101207.06;6274918;28;20037;-73
2022/02/27 04:43:59;;;;;;;8.70;4.63;;;;;;;3.16;61.36;101208.59;6273660;28;20041;-73
2022/02/27 04:46:59;;;;;;;11.23;4.60;;;;;;;3.14;59.58;101222.41;6274556;28;20056;-73
2022/02/27 04:50:00;;;;;;;8.90;4.22;;;;;;;3.06;59.35;101225.06;6274763;28;20041;-73
2022/02/27 04:53:01;;;;;;;11.25;4.43;;;;;;;3.17;60.16;101223.22;6273270;28;20048;-72
2022/02/27 04:56:03;;;;;;;10.23;4.35;;;;;;;3.14;60.20;101240.44;6273357;28;20127;-72
2022/02/27 04:59:04;;;;;;;9.95;4.78;;;;;;;3.10;59.33;101231.03;6274345;28;20048;-68
2022/02/27 05:02:05;;;;;;;7.95;4.22;;;;;;;3.08;59.89;101237.94;6274313;28;20119;-68
2022/02/27 05:05:07;;;;;;;11.15;5.10;;;;;;;3.10;60.22;101252.50;6274284;28;20409;-68
2022/02/27 05:08:08;;;;;;;13.20;4.90;;;;;;;3.14;59.51;101246.44;6274184;28;20045;-68
2022/02/27 05:11:08;;;;;;;8.80;4.35;;;;;;;2.99;59.01;101257.78;6272779;28;20343;-68
2022/02/27 05:14:09;;;;;;;11.05;5.07;;;;;;;3.10;60.20;101244.78;6272902;28;20045;-68
2022/02/27 05:17:10;;;;;;;10.00;4.60;;;;;;;3.10;59.25;101247.34;6273995;28;20051;-72
2022/02/27 05:20:13;;;;;;;9.27;4.25;;;;;;;3.14;59.05;101259.34;6274027;28;20123;-72
2022/02/27 05:23:14;;;;;;;8.02;4.43;;;;;;;3.16;59.43;101261.91;6272399;28;20053;-72
2022/02/27 05:26:15;;;;;;;14.40;4.93;;;;;;;3.05;58.66;101259.47;6272963;28;20048;-73
2022/02/27 05:29:16;;;;;;;9.27;3.95;;;;;;;3.01;58.90;101253.47;6273186;28;20491;-73
2022/02/27 05:32:18;;;;;;;7.53;4.38;;;;;;;3.00;59.13;101246.59;6272429;28;20037;-69
2022/02/27 05:35:19;;;;;;;9.15;4.68;;;;;;;2.97;59.49;101269.00;6239114;28;20488;-68
2022/02/27 05:38:20;;;;;;;7.50;3.80;;;;;;;3.00;59.33;101266.38;6273519;28;20480;-69
2022/02/27 05:41:20;;;;;;;7.10;3.60;;;;;;;2.95;59.60;101270.75;6273591;28;20128;-69
2022/02/27 05:44:21;;;;;;;12.85;3.97;;;;;;;2.95;59.89;101265.59;6272135;28;20051;-69
2022/02/27 05:47:22;;;;;;;8.88;3.88;;;;;;;2.86;59.98;101270.81;6271894;28;20396;-69
2022/02/27 05:50:24;;;;;;;14.40;4.70;;;;;;;2.82;61.02;101269.97;6271886;28;20119;-69
2022/02/27 05:53:24;;;;;;;8.70;4.30;;;;;;;2.78;60.53;101271.75;6272949;28;20051;-72
2022/02/27 05:56:26;;;;;;;10.60;4.97;;;;;;;2.85;60.07;101271.69;6271536;28;20937;-73
2022/02/27 05:59:27;;;;;;;9.10;4.50;;;;;;;2.96;59.86;101280.16;6272185;28;20144;-73
2022/02/27 06:02:27;;;;;;;9.25;5.18;;;;;;;3.06;59.25;101289.53;6271617;28;20041;-72
2022/02/27 06:05:29;;;;;;;7.40;4.18;;;;;;;3.10;58.40;101280.88;6272814;28;20069;-68
2022/02/27 06:08:30;;;;;;;11.85;4.45;;;;;;;3.12;58.93;101288.59;6272686;28;20045;-68
2022/02/27 06:11:31;;;;;;;6.32;3.88;;;;;;;3.14;58.98;101292.88;6272672;28;20491;-68
2022/02/27 06:14:32;;;;;;;8.35;4.38;;;;;;;3.26;58.83;101291.06;6254897;28;20048;-68
2022/02/27 06:17:32;;;;;;;13.48;7.38;;;;;;;3.15;59.03;101302.34;6271186;28;20130;-68
2022/02/27 06:20:33;;;;;;;7.32;4.70;;;;;;;3.16;58.19;101305.75;6271403;28;20048;-68
2022/02/27 06:23:34;;;;;;;11.77;4.65;;;;;;;3.10;58.40;101308.41;6290230;28;20044;-68
2022/02/27 06:26:35;;;;;;;11.30;4.88;;;;;;;3.05;58.72;101311.03;6297409;28;20475;-68
2022/02/27 06:29:36;;;;;;;10.23;4.93;;;;;;;3.17;58.66;101313.50;6278932;28;20126;-68
2022/02/27 06:32:37;;;;;;;9.63;4.57;;;;;;;3.23;59.12;101315.13;6295927;28;20045;-68
2022/02/27 06:35:38;;;;;;;12.10;5.05;;;;;;;3.17;58.28;101323.81;6297205;28;20123;-68
2022/02/27 06:38:40;;;;;;;11.07;4.90;;;;;;;3.22;59.02;101326.34;6296005;28;20059;-68
2022/02/27 06:41:47;;;;;;;10.23;4.20;;;;;;;3.29;58.64;101333.13;6297083;28;20537;-68
2022/02/27 06:44:48;;;;;;;7.03;3.45;;;;;;;3.16;57.39;101347.03;6296823;28;20082;-72
2022/02/27 06:47:49;;;;;;;10.95;4.38;;;;;;;3.21;57.00;101356.44;6296673;28;20048;-69
2022/02/27 06:50:50;;;;;;;7.93;3.95;;;;;;;3.13;56.89;101345.34;6278464;28;20131;-68
2022/02/27 06:53:51;;;;;;;14.93;5.50;;;;;;;3.20;57.40;101357.28;6296382;28;20053;-70
2022/02/27 06:56:52;;;;;;;12.57;4.55;;;;;;;3.20;56.48;101361.59;6296901;28;20455;-73
2022/02/27 06:59:53;;;;;;;12.10;4.97;;;;;;;3.35;55.85;101358.00;6279377;28;20051;-73
2022/02/27 07:02:54;;;;;;;13.80;5.28;;;;;;;3.45;56.13;101367.38;6296934;28;20052;-69
2022/02/27 07:05:55;;;;;;;18.25;5.65;;;;;;;3.36;56.11;101352.00;6296712;28;20066;-68
2022/02/27 07:08:56;;;;;;;14.60;5.25;;;;;;;3.52;55.75;101344.91;6295662;28;20475;-69
2022/02/27 07:11:57;;;;;;;7.65;3.40;;;;;;;3.44;55.36;101368.25;6296715;28;20044;-69
2022/02/27 07:14:58;;;;;;;13.52;4.85;;;;;;;3.55;55.83;101365.56;6295442;28;20050;-69
2022/02/27 07:18:00;;;;;;;10.88;4.80;;;;;;;3.56;56.39;101367.25;6296693;28;20068;-68
2022/02/27 07:21:01;;;;;;;10.63;3.78;;;;;;;3.51;55.49;101372.47;6295359;28;20062;-72
2022/02/27 07:24:02;;;;;;;9.82;4.38;;;;;;;3.51;55.38;101376.78;6296650;28;20882;-68
2022/02/27 07:27:03;;;;;;;15.48;5.10;;;;;;;3.62;56.08;101388.69;6296429;28;20386;-68
2022/02/27 07:30:06;;;;;;;5.97;3.35;;;;;;;3.47;55.64;101385.41;6296448;28;20112;-68
2022/02/27 07:33:07;;;;;;;11.50;5.25;;;;;;;3.67;55.10;101386.06;6295290;28;20045;-68
2022/02/27 07:36:08;;;;;;;9.68;4.25;;;;;;;3.60;54.59;101384.41;6296222;28;20102;-68
2022/02/27 07:39:09;;;;;;;7.50;4.32;;;;;;;3.75;54.86;101371.34;6295573;28;20045;-68
2022/02/27 07:42:10;;;;;;;10.48;5.18;;;;;;;3.96;54.36;101384.88;6297967;28;20133;-71
2022/02/27 07:45:12;;;;;;;15.68;3.67;;;;;;;3.85;53.34;101385.00;6283191;28;20044;-68
2022/02/27 07:48:13;;;;;;;8.15;3.25;;;;;;;3.66;53.40;101399.81;6299871;28;20052;-68
2022/02/27 07:51:14;;;;;;;10.35;3.17;;;;;;;3.65;53.87;101395.56;6300772;28;20048;-72
2022/02/27 07:54:15;;;;;;;6.97;4.15;;;;;;;3.66;53.95;101386.91;6300912;28;20049;-68
2022/02/27 07:57:16;;;;;;;9.23;4.72;;;;;;;3.80;53.67;101394.53;6300514;28;20068;-72
2022/02/27 08:00:17;;;;;;;8.40;3.33;;;;;;;3.69;54.20;101394.66;6266305;28;20045;-72
2022/02/27 08:03:18;;;;;;;11.35;4.40;;;;;;;3.88;54.00;101390.13;6300097;28;20040;-73
2022/02/27 08:06:18;;;;;;;10.48;4.57;;;;;;;3.93;54.96;101385.78;6299754;28;20376;-72
2022/02/27 08:09:19;;;;;;;13.40;5.50;;;;;;;4.17;53.44;101391.47;6297625;28;20041;-73
2022/02/27 08:12:20;;;;;;;9.75;4.57;;;;;;;4.22;53.62;101377.63;6289585;28;20033;-74
2022/02/27 08:15:21;;;;;;;10.30;4.72;;;;;;;4.35;53.05;101382.63;6285242;28;20406;-73
2022/02/27 08:18:22;;;;;;;9.25;4.32;;;;;;;4.38;52.40;101377.41;6284434;28;20509;-73
2022/02/27 08:21:23;;;;;;;12.95;4.93;;;;;;;4.53;51.66;101382.38;6281291;28;20044;-73
2022/02/27 08:24:24;;;;;;;12.63;5.15;;;;;;;4.72;52.17;101385.53;6256603;28;20044;-69
2022/02/27 08:27:25;;;;;;;9.52;4.95;;;;;;;4.86;51.48;101387.91;6294337;28;20036;-69
2022/02/27 08:30:25;;;;;;;11.98;4.40;;;;;;;4.91;51.35;101391.25;6283340;28;20106;-73
2022/02/27 08:33:27;;;;;;;8.93;4.03;;;;;;;4.78;51.26;101377.69;6273215;28;20128;-73
2022/02/27 08:36:28;;;;;;;12.17;5.17;;;;;;;4.92;50.64;101389.50;6280845;28;20040;-69
2022/02/27 08:39:29;;;;;;;11.25;4.72;;;;;;;4.93;51.03;101386.91;6298050;28;20044;-69
2022/02/27 08:42:31;;;;;;;9.98;5.00;;;;;;;5.03;50.71;101388.47;6285319;28;20123;-68
2022/02/27 08:45:32;;;;;;;9.13;4.43;;;;;;;5.15;50.37;101386.56;6273666;28;20041;-69
2022/02/27 08:48:34;;;;;;;10.40;4.95;;;;;;;5.34;50.15;101387.94;6275024;28;20049;-68
2022/02/27 08:51:35;;;;;;;8.65;4.15;;;;;;;5.45;50.31;101385.16;6276370;28;20041;-69
2022/02/27 08:54:36;;;;;;;10.02;4.10;;;;;;;5.36;49.46;101374.97;6297244;28;20060;-69
2022/02/27 08:57:38;;;;;;;7.97;4.28;;;;;;;5.44;49.50;101383.47;6280367;28;20312;-69
2022/02/27 09:00:38;;;;;;;15.20;5.45;;;;;;;5.56;49.56;101383.22;6272746;28;20610;-68
2022/02/27 09:03:40;;;;;;;13.00;5.30;;;;;;;5.60;49.44;101381.41;6297250;28;20487;-69
2022/02/27 09:06:41;;;;;;;12.20;4.72;;;;;;;5.67;48.84;101369.22;6297102;28;20086;-73
2022/02/27 09:09:42;;;;;;;10.30;4.47;;;;;;;6.02;48.84;101371.13;6298240;28;20044;-73
2022/02/27 09:12:45;;;;;;;13.20;5.33;;;;;;;6.03;48.50;101378.00;6279195;28;20135;-73
2022/02/27 09:15:47;;;;;;;12.95;6.53;;;;;;;6.29;47.90;101369.66;6285839;28;20072;-69
2022/02/27 09:18:48;;;;;;;12.40;5.65;;;;;;;6.49;47.16;101369.22;6276330;28;20040;-68
2022/02/27 09:21:49;;;;;;;12.88;5.47;;;;;;;6.63;47.04;101366.28;6298037;28;20049;-73
2022/02/27 09:24:50;;;;;;;11.38;5.05;;;;;;;6.97;45.56;101365.47;6313363;28;20055;-73
2022/02/27 09:27:51;;;;;;;8.05;4.00;;;;;;;7.15;44.95;101356.38;6297639;28;20040;-69
2022/02/27 09:30:51;;;;;;;9.40;4.30;;;;;;;7.24;45.51;101363.91;6297505;28;20052;-73
2022/02/27 09:33:53;;;;;;;16.63;5.75;;;;;;;7.32;44.53;101366.31;6297583;28;20040;-73
2022/02/27 09:36:54;;;;;;;12.15;5.93;;;;;;;7.34;43.75;101364.53;6279735;28;20047;-73
2022/02/27 09:39:58;;;;;;;36.72;9.60;;;;;;;7.37;43.55;101362.72;6297443;28;20399;-68
2022/02/27 09:42:59;;;;;;;8.38;4.10;;;;;;;7.51;44.13;101370.09;6296258;28;20045;-73
2022/02/27 09:46:03;;;;;;;10.35;4.43;;;;;;;7.43;43.02;101364.28;6297142;28;20132;-69
2022/02/27 09:49:07;;;;;;;15.02;5.63;;;;;;;7.51;42.68;101361.47;6279538;28;20037;-70
2022/02/27 09:52:08;;;;;;;10.82;4.25;;;;;;;7.49;43.40;101369.28;6290624;28;20075;-73
2022/02/27 09:55:12;;;;;;;18.85;6.05;;;;;;;7.90;41.32;101356.88;6279465;28;20133;-71
2022/02/27 09:58:13;;;;;;;4.90;2.65;;;;;;;8.17;43.19;101347.41;6296916;28;20106;-67
2022/02/27 10:01:16;;;;;;;12.50;4.35;;;;;;;8.47;41.87;101353.47;6295952;28;20040;-67
2022/02/27 10:04:19;;;;;;;10.93;4.82;;;;;;;8.41;40.68;101345.00;6296076;28;20472;-67
2022/02/27 10:07:20;;;;;;;11.70;4.82;;;;;;;8.91;42.57;101346.88;6279343;28;20040;-71
2022/02/27 10:10:21;;;;;;;7.50;3.50;;;;;;;9.59;40.09;101340.16;6295632;28;20120;-71
2022/02/27 10:13:42;;;;;;;8.40;3.33;;;;;;;9.31;38.03;101343.75;6296748;28;20041;-67
2022/02/27 10:16:48;;;;;;;6.03;2.42;;;;;;;9.78;37.35;101335.09;6297068;28;20093;-71
2022/02/27 10:19:52;;;;;;;6.30;2.60;;;;;;;9.95;39.33;101339.72;6296685;28;20487;-71
2022/02/27 10:22:54;;;;;;;3.83;2.10;;;;;;;9.75;35.42;101341.28;6295377;28;20052;-71
2022/02/27 10:25:55;;;;;;;4.68;1.92;;;;;;;10.04;36.78;101323.69;6296586;28;20115;-67
2022/02/27 10:29:18;;;;;;;4.97;2.42;;;;;;;10.39;36.13;101329.31;6295482;28;20097;-67
2022/02/27 10:32:27;;;;;;;4.80;1.80;;;;;;;10.44;35.85;101327.41;6296687;28;20067;-67
2022/02/27 10:35:42;;;;;;;5.57;2.38;;;;;;;10.70;35.10;101318.47;6296386;28;20406;-72
2022/02/27 10:41:43;;;;;;;3.60;2.05;;;;;;;10.79;33.90;101304.19;6270184;28;20041;-70
2022/02/27 10:44:57;;;;;;;3.67;1.80;;;;;;;10.54;32.66;101293.94;6270344;28;20041;-67
2022/02/27 10:48:04;;;;;;;3.22;2.15;;;;;;;10.72;35.41;101298.38;6271065;28;20110;-71
2022/02/27 10:51:11;;;;;;;4.63;2.20;;;;;;;11.01;35.79;101294.53;6270139;28;20120;-67
2022/02/27 10:54:12;;;;;;;5.20;2.30;;;;;;;10.88;32.86;101291.59;6271198;28;20044;-73
2022/02/27 10:57:34;;;;;;;5.88;2.38;;;;;;;10.99;33.34;101296.38;6271194;28;20041;-71
2022/02/27 11:00:36;;;;;;;5.30;2.40;;;;;;;11.31;31.90;101285.44;6269881;28;20453;-68
2022/02/27 11:03:38;;;;;;;7.38;2.90;;;;;;;11.26;34.05;101277.78;6270215;28;20126;-72
2022/02/27 11:06:40;;;;;;;10.65;4.07;;;;;;;11.39;33.94;101273.72;6269980;28;20045;-71
2022/02/27 11:09:44;;;;;;;9.15;2.10;;;;;;;11.49;31.71;101275.00;6271036;28;20269;-67
2022/02/27 11:12:46;;;;;;;8.55;4.85;;;;;;;11.62;34.05;101275.28;6269860;28;20041;-68
2022/02/27 11:15:49;;;;;;;9.53;3.70;;;;;;;11.79;32.83;101271.88;6270866;28;20472;-70
2022/02/27 11:18:51;;;;;;;6.60;3.40;;;;;;;11.63;33.39;101261.31;6275991;28;20045;-69
2022/02/27 11:21:53;;;;;;;6.72;2.45;;;;;;;11.97;31.04;101264.16;6275831;28;20041;-69
2022/02/27 11:25:00;;;;;;;6.95;2.00;;;;;;;11.62;29.83;101261.38;6276309;28;20458;-69
2022/02/27 11:28:03;;;;;;;6.85;2.20;;;;;;;11.54;31.49;101253.88;6275633;28;20045;-70
2022/02/27 11:31:05;;;;;;;2.50;1.63;;;;;;;11.38;29.72;101255.50;6275769;28;20484;-69
2022/02/27 11:34:15;;;;;;;7.70;2.55;;;;;;;11.17;31.14;101244.25;6274378;28;20512;-72
2022/02/27 11:37:51;;;;;;;4.30;2.17;;;;;;;11.48;32.67;101246.31;6275713;28;20407;-72
2022/02/27 11:40:57;;;;;;;5.20;1.98;;;;;;;11.87;31.89;101242.78;6276024;28;20049;-72
2022/02/27 11:43:58;;;;;;;5.30;2.75;;;;;;;11.80;32.22;101241.38;6275497;28;20076;-68
2022/02/27 11:47:05;;;;;;;4.88;2.20;;;;;;;11.57;30.05;101234.59;6273935;28;20056;-69
2022/02/27 11:50:40;;;;;;;5.50;2.47;;;;;;;11.56;30.48;101238.13;6275275;28;20064;-69
2022/02/27 11:53:48;;;;;;;4.90;2.00;;;;;;;11.82;32.26;101227.31;6263381;28;20056;-69
2022/02/27 11:57:01;;;;;;;4.70;2.42;;;;;;;11.58;29.39;101239.75;6275172;28;20499;-68
2022/02/27 12:00:06;;;;;;;;;;;;;;;11.17;30.29;101239.03;6275755;28;20068;-73
2022/02/27 12:03:37;;;;;;;7.03;2.40;;;;;;;11.42;32.21;101223.09;6275023;28;19924;-69
2022/02/27 12:07:09;;;;;;;8.55;2.88;;;;;;;11.06;31.93;101229.91;6255660;28;20053;-68
2022/02/27 12:10:10;;;;;;;7.30;3.42;;;;;;;10.44;31.32;101230.84;6274818;28;20041;-72
2022/02/27 12:13:51;;;;;;;7.72;4.22;;;;;;;11.15;31.13;101223.41;6273472;28;20045;-72
2022/02/27 12:16:52;;;;;;;6.32;2.28;;;;;;;11.21;32.12;101220.53;6256724;28;20111;-72
2022/02/27 12:19:53;;;;;;;6.88;3.17;;;;;;;11.39;32.47;101210.16;6274476;28;20045;-72
2022/02/27 12:22:53;;;;;;;8.13;3.72;;;;;;;11.84;31.79;101212.38;6289168;28;20052;-73
2022/02/27 12:25:58;;;;;;;5.22;2.25;;;;;;;12.17;32.27;101198.63;6299245;28;20040;-69
2022/02/27 12:28:59;;;;;;;;;;;;;;;12.11;29.58;101206.78;6281169;28;20063;-72
2022/02/27 12:32:17;;;;;;;15.55;6.40;;;;;;;11.63;28.91;101211.66;6297677;28;20309;-68
2022/02/27 12:35:18;;;;;;;8.82;3.45;;;;;;;11.08;29.96;101206.34;6298078;28;20059;-72
2022/02/27 12:38:24;;;;;;;7.05;1.98;;;;;;;11.19;30.16;101198.00;6298821;28;20044;-73
2022/02/27 12:41:30;;;;;;;5.40;2.30;;;;;;;10.74;31.71;101201.75;6299090;28;20448;-72
2022/02/27 12:44:33;;;;;;;3.38;2.00;;;;;;;10.45;31.74;101199.44;6298974;28;20479;-68
2022/02/27 12:47:34;;;;;;;5.05;1.90;;;;;;;10.41;31.70;101204.88;6298623;28;20055;-68
2022/02/27 12:50:52;;;;;;;5.50;2.70;;;;;;;10.55;33.67;101205.13;6298002;28;20049;-69
2022/02/27 12:53:57;;;;;;;7.10;3.88;;;;;;;11.19;32.49;101195.41;6297516;28;20482;-73
2022/02/27 12:57:00;;;;;;;4.25;2.22;;;;;;;11.32;29.52;101195.69;6298684;28;20045;-73
2022/02/27 13:00:02;;;;;;;6.85;2.85;;;;;;;11.34;30.32;101188.63;6298413;28;20036;-68
2022/02/27 13:03:13;;;;;;;5.75;2.08;;;;;;;11.12;31.44;101186.13;6298461;28;20079;-68
2022/02/27 13:06:15;;;;;;;10.23;3.40;;;;;;;10.96;29.94;101183.38;6297276;28;20513;-68
2022/02/27 13:09:22;;;;;;;;;;;;;;;11.04;30.25;101181.28;6297553;28;20074;-69
2022/02/27 13:12:28;;;;;;;7.60;3.08;;;;;;;11.16;29.73;101185.94;6298150;28;20044;-69
2022/02/27 13:15:29;;;;;;;5.05;2.10;;;;;;;10.63;30.58;101184.78;6298027;28;20040;-73
2022/02/27 13:18:30;;;;;;;5.53;1.85;;;;;;;10.23;31.18;101176.03;6296509;28;20044;-68
2022/02/27 13:21:37;;;;;;;3.90;2.05;;;;;;;10.53;30.52;101178.25;6298424;28;20040;-72
2022/02/27 13:24:43;;;;;;;8.63;3.22;;;;;;;10.98;30.70;101178.94;6297920;28;20534;-68
2022/02/27 13:27:48;;;;;;;6.72;3.28;;;;;;;11.15;31.69;101178.16;6280440;28;20045;-68
2022/02/27 13:30:49;;;;;;;12.40;6.05;;;;;;;10.92;29.70;101179.22;6254880;28;20053;-69
2022/02/27 13:33:51;;;;;;;10.68;5.22;;;;;;;10.60;29.11;101179.69;6272814;28;20099;-68
2022/02/27 13:36:52;;;;;;;;;;;;;;;10.53;29.81;101172.19;6305570;28;20045;-72
2022/02/27 13:39:58;;;;;;;6.22;2.42;;;;;;;10.41;30.60;101182.22;6271298;28;20021;-72
2022/02/27 13:43:01;;;;;;;5.18;2.60;;;;;;;10.54;30.38;101174.72;6273098;28;20049;-72
2022/02/27 13:46:06;;;;;;;8.55;3.33;;;;;;;10.62;29.69;101164.78;6314678;28;20052;-72
2022/02/27 13:49:11;;;;;;;2.97;1.48;;;;;;;10.56;30.29;101161.63;6286032;28;20060;-72
2022/02/27 13:52:21;;;;;;;5.32;2.20;;;;;;;10.71;30.50;101166.19;6271472;28;20049;-72
2022/02/27 13:55:24;;;;;;;4.78;1.80;;;;;;;10.92;30.88;101171.38;6275672;28;20044;-69
2022/02/27 13:58:28;;;;;;;4.07;2.25;;;;;;;10.46;29.94;101169.84;6296710;28;20041;-69
2022/02/27 14:01:34;;;;;;;4.75;2.53;;;;;;;10.03;30.79;101168.16;6295603;28;20032;-68
2022/02/27 14:04:35;;;;;;;8.95;3.70;;;;;;;9.75;30.59;101166.66;6296690;28;20407;-68
2022/02/27 14:07:38;;;;;;;15.82;8.38;;;;;;;9.58;30.88;101169.94;6295606;28;20475;-69
2022/02/27 14:10:39;;;;;;;8.07;3.25;;;;;;;9.53;30.29;101163.19;6296583;28;20136;-72
2022/02/27 14:13:51;;;;;;;10.43;5.88;;;;;;;9.80;31.58;101169.06;6296652;28;20123;-72
2022/02/27 14:16:52;;;;;;;9.68;5.03;;;;;;;9.94;30.74;101155.50;6296700;28;20048;-68